Time;durP1;ratioP1;P1;durP2;ratioP2;P2;SDS_P1;SDS_P2;PMS_P1;PMS_P2;Temp;Humidity;BMP_temperature;BMP_pressure;BME280_temperature;BME280_humidity;BME280_pressure;Samples;Min_cycle;Max_cycle;Signal;HPM_P1;HPM_P2
2021/05/17 00:01:52;;;;;;;5.38;3.95;;;;;;;10.01;100.00;96205.44;4888588;29;20044;-62
2021/05/17 00:04:19;;;;;;;5.05;4.50;;;;;;;10.36;100.00;96281.19;4890655;29;20038;-61
2021/05/17 00:06:45;;;;;;;6.15;4.78;;;;;;;9.32;100.00;96094.03;4889665;29;20059;-64
2021/05/17 00:09:11;;;;;;;8.50;5.60;;;;;;;9.76;100.00;96169.34;4890405;29;20489;-61
2021/05/17 00:11:36;;;;;;;7.20;4.90;;;;;;;10.38;100.00;96267.75;4888420;29;20088;-61
2021/05/17 00:14:02;;;;;;;8.70;4.55;;;;;;;9.41;100.00;96100.00;4890199;29;20032;-62
2021/05/17 00:16:28;;;;;;;4.88;4.38;;;;;;;10.24;98.83;96262.13;4889755;29;20323;-61
2021/05/17 00:18:53;;;;;;;8.43;4.82;;;;;;;9.57;99.46;96161.31;4890374;29;20032;-61
2021/05/17 00:21:19;;;;;;;7.10;5.38;;;;;;;10.19;100.00;96264.47;4888664;29;20046;-61
2021/05/17 00:23:45;;;;;;;7.57;5.55;;;;;;;10.30;100.00;96270.88;4889916;29;20578;-64
2021/05/17 00:26:11;;;;;;;10.13;6.15;;;;;;;10.00;100.00;96273.81;4889664;29;20032;-61
2021/05/17 00:28:36;;;;;;;13.80;6.82;;;;;;;9.95;100.00;96265.88;4890110;29;20063;-61
2021/05/17 00:31:02;;;;;;;6.53;4.53;;;;;;;9.97;100.00;96269.06;4890067;29;20040;-61
2021/05/17 00:33:28;;;;;;;6.40;4.22;;;;;;;9.74;100.00;96227.00;4890075;29;20480;-61
2021/05/17 00:35:54;;;;;;;9.55;4.88;;;;;;;10.03;99.69;96289.66;4889494;29;20041;-61
2021/05/17 00:38:20;;;;;;;5.18;4.68;;;;;;;7.54;99.96;95879.72;4890027;29;20128;-61
2021/05/17 00:40:47;;;;;;;7.65;4.80;;;;;;;9.97;100.00;96280.13;4887994;29;20060;-63
2021/05/17 00:43:13;;;;;;;6.65;4.88;;;;;;;9.91;99.81;96284.41;4888186;29;20041;-62
2021/05/17 00:45:39;;;;;;;7.30;5.18;;;;;;;9.31;100.00;96200.22;4888145;29;20519;-61
2021/05/17 00:48:05;;;;;;;6.60;4.93;;;;;;;9.88;100.00;96299.00;4888431;29;20040;-61
2021/05/17 00:50:31;;;;;;;6.15;5.35;;;;;;;9.39;100.00;96193.56;4887847;29;20123;-61
2021/05/17 00:52:57;;;;;;;13.00;5.60;;;;;;;9.88;100.00;96276.88;4902412;29;20044;-64
2021/05/17 00:55:24;;;;;;;6.97;5.47;;;;;;;9.06;100.00;96141.19;4887768;29;20021;-62
2021/05/17 00:57:50;;;;;;;8.80;6.45;;;;;;;9.95;100.00;96254.81;4888322;29;20036;-61
2021/05/17 01:00:22;;;;;;;6.93;5.68;;;;;;;9.91;100.00;96265.03;4886075;29;20040;-62
2021/05/17 01:02:48;;;;;;;9.75;6.22;;;;;;;9.79;100.00;96256.25;4888479;29;20161;-61
2021/05/17 01:05:14;;;;;;;9.15;6.15;;;;;;;9.78;100.00;96269.31;4887385;29;20035;-62
2021/05/17 01:07:45;;;;;;;7.80;5.93;;;;;;;9.68;100.00;96267.25;4888005;29;20040;-62
2021/05/17 01:10:18;;;;;;;6.65;5.95;;;;;;;9.73;100.00;96258.63;4887360;29;20580;-61
2021/05/17 01:12:46;;;;;;;9.95;7.10;;;;;;;9.76;100.00;96260.59;4886551;29;20036;-62
2021/05/17 01:15:13;;;;;;;8.02;6.72;;;;;;;9.78;100.00;96271.28;4887725;29;20032;-62
2021/05/17 01:17:40;;;;;;;14.57;7.38;;;;;;;9.72;100.00;96267.28;4888646;29;20068;-62
2021/05/17 01:20:10;;;;;;;12.48;7.03;;;;;;;9.67;100.00;96265.69;4887148;29;20040;-61
2021/05/17 01:25:21;;;;;;;11.90;7.88;;;;;;;9.77;99.75;96278.78;4888398;29;20040;-61
2021/05/17 01:27:47;;;;;;;13.32;7.38;;;;;;;9.74;100.00;96276.78;4889213;29;20501;-63
2021/05/17 01:30:14;;;;;;;9.63;7.18;;;;;;;8.13;100.00;96087.44;4887011;29;20037;-61
2021/05/17 01:32:40;;;;;;;8.57;7.05;;;;;;;9.73;100.00;96264.16;4888775;29;20052;-62
2021/05/17 01:35:06;;;;;;;12.45;6.82;;;;;;;9.32;99.30;96199.06;4888819;29;20032;-63
2021/05/17 01:37:36;;;;;;;14.85;7.55;;;;;;;9.29;100.00;96277.19;4889047;29;20036;-62
2021/05/17 01:40:02;;;;;;;14.23;8.00;;;;;;;9.16;100.00;96229.72;4888775;29;20125;-61
2021/05/17 01:42:29;;;;;;;10.45;7.97;;;;;;;9.10;100.00;96220.16;4888777;29;20087;-64
2021/05/17 01:44:55;;;;;;;10.77;8.63;;;;;;;9.64;100.00;96283.00;4887579;29;20120;-61
2021/05/17 01:47:23;;;;;;;9.75;7.88;;;;;;;9.69;100.00;96274.38;4888285;29;20512;-61
2021/05/17 01:49:51;;;;;;;9.25;7.90;;;;;;;9.60;100.00;96271.13;4888929;29;20044;-60
2021/05/17 01:52:19;;;;;;;10.45;7.63;;;;;;;9.65;100.00;96261.69;4889207;29;20041;-61
2021/05/17 01:54:48;;;;;;;7.50;6.78;;;;;;;9.50;100.00;96265.53;4888559;29;20036;-60
2021/05/17 01:57:14;;;;;;;8.30;7.50;;;;;;;8.81;100.00;96173.34;4886422;29;20539;-63
2021/05/17 01:59:39;;;;;;;9.10;6.90;;;;;;;9.44;100.00;96283.66;4888303;29;20064;-61
2021/05/17 02:02:05;;;;;;;10.25;8.00;;;;;;;9.44;100.00;96273.38;4902308;29;20089;-63
2021/05/17 02:04:31;;;;;;;10.70;7.97;;;;;;;9.06;100.00;96207.50;4888567;29;20043;-60
2021/05/17 02:06:56;;;;;;;9.13;7.60;;;;;;;9.43;100.00;96271.78;4888376;29;20048;-63
2021/05/17 02:09:26;;;;;;;9.50;7.22;;;;;;;8.98;100.00;96217.69;4888703;29;20036;-61
2021/05/17 02:11:52;;;;;;;8.55;7.45;;;;;;;9.09;100.00;96240.69;4887099;29;20040;-61
2021/05/17 02:14:20;;;;;;;9.73;7.18;;;;;;;9.42;100.00;96295.06;4888411;29;20552;-60
2021/05/17 02:16:46;;;;;;;11.02;7.50;;;;;;;9.01;99.99;96194.03;4887974;29;20433;-61
2021/05/17 02:19:12;;;;;;;7.68;6.75;;;;;;;9.47;99.19;96289.19;4888641;29;20028;-61
2021/05/17 02:21:37;;;;;;;8.52;7.63;;;;;;;9.45;99.63;96274.97;4887986;29;20080;-62
2021/05/17 02:24:07;;;;;;;9.93;7.57;;;;;;;9.40;99.08;96288.34;4888416;29;20044;-61
2021/05/17 02:26:33;;;;;;;12.40;9.00;;;;;;;9.34;100.00;96296.19;4886444;29;20120;-61
2021/05/17 02:28:59;;;;;;;13.52;10.57;;;;;;;9.46;100.00;96289.56;4888656;29;20459;-63
2021/05/17 02:31:24;;;;;;;11.25;8.80;;;;;;;9.11;98.91;96240.31;4888113;29;20039;-61
2021/05/17 02:33:50;;;;;;;9.82;8.60;;;;;;;8.98;98.97;96258.31;4887885;29;20108;-61
2021/05/17 02:36:16;;;;;;;14.20;9.75;;;;;;;8.89;99.95;96225.50;4891514;29;20037;-61
2021/05/17 02:38:42;;;;;;;11.15;9.93;;;;;;;9.34;100.00;96298.16;4891738;29;20032;-62
2021/05/17 02:41:10;;;;;;;11.70;9.82;;;;;;;9.38;99.75;96291.47;4891481;29;20048;-63
2021/05/17 02:43:36;;;;;;;12.82;8.82;;;;;;;8.99;98.25;96243.34;4889851;29;20585;-63
2021/05/17 02:46:02;;;;;;;13.10;8.88;;;;;;;8.95;99.63;96239.75;4891175;29;20080;-61
2021/05/17 02:48:29;;;;;;;10.82;9.07;;;;;;;9.29;100.00;96304.81;4891988;29;20029;-62
2021/05/17 02:50:55;;;;;;;13.07;8.85;;;;;;;9.35;100.00;96308.81;4892132;29;20039;-62
2021/05/17 02:53:37;;;;;;;9.20;8.30;;;;;;;8.98;100.00;96247.25;4892201;29;20032;-61
2021/05/17 02:56:08;;;;;;;12.60;7.90;;;;;;;9.33;99.55;96289.06;4891192;29;20198;-61
2021/05/17 02:58:39;;;;;;;10.02;7.38;;;;;;;9.36;99.67;96296.59;4891980;29;20045;-61
2021/05/17 03:01:20;;;;;;;10.52;8.43;;;;;;;9.32;100.00;96298.53;4889560;29;20127;-62
2021/05/17 03:03:49;;;;;;;10.52;8.82;;;;;;;9.29;100.00;96279.97;4889957;29;20483;-61
2021/05/17 03:06:37;;;;;;;11.88;9.95;;;;;;;9.42;100.00;96275.72;4891005;29;20409;-63
2021/05/17 03:09:08;;;;;;;9.50;7.82;;;;;;;9.44;100.00;96278.91;4891185;29;20056;-61
2021/05/17 03:11:40;;;;;;;9.27;7.80;;;;;;;6.88;98.99;95901.78;4890802;29;20037;-62
2021/05/17 03:14:08;;;;;;;10.57;7.65;;;;;;;9.44;98.06;96280.88;4891114;29;20044;-62
2021/05/17 03:16:36;;;;;;;8.82;7.90;;;;;;;9.10;98.96;96228.44;4889250;29;20044;-62
2021/05/17 03:19:02;;;;;;;13.13;8.20;;;;;;;8.92;99.56;96210.13;4889350;29;20528;-64
2021/05/17 03:21:30;;;;;;;10.98;7.68;;;;;;;8.99;99.90;96212.97;4890616;29;20131;-62
2021/05/17 03:23:56;;;;;;;10.27;7.40;;;;;;;9.37;98.17;96276.09;4904972;29;20061;-63
2021/05/17 03:26:25;;;;;;;9.70;6.97;;;;;;;9.47;98.48;96278.13;4890276;29;20432;-61
2021/05/17 03:28:50;;;;;;;9.20;7.70;;;;;;;9.54;99.78;96289.25;4891430;29;20490;-62
2021/05/17 03:31:18;;;;;;;8.00;7.05;;;;;;;9.57;97.95;96294.03;4889269;29;20032;-63
2021/05/17 03:33:43;;;;;;;11.80;7.07;;;;;;;9.56;97.81;96275.88;4890842;29;20421;-62
2021/05/17 03:36:09;;;;;;;8.75;7.88;;;;;;;9.61;97.48;96278.25;4890477;29;20091;-64
2021/05/17 03:38:35;;;;;;;11.68;8.05;;;;;;;9.22;97.25;96216.31;4889359;29;20040;-62
2021/05/17 03:41:00;;;;;;;10.32;7.97;;;;;;;9.01;96.74;96177.44;4890235;29;20044;-64
2021/05/17 03:43:26;;;;;;;10.15;8.02;;;;;;;8.99;96.09;96179.81;4891327;29;20131;-62
2021/05/17 03:45:52;;;;;;;14.32;9.45;;;;;;;9.46;96.43;96248.91;4890751;29;20044;-61
2021/05/17 03:48:17;;;;;;;9.15;7.55;;;;;;;9.14;96.26;96187.03;4891148;29;20044;-62
2021/05/17 03:50:43;;;;;;;9.57;7.40;;;;;;;9.86;96.33;96306.91;4890225;29;20041;-64
2021/05/17 03:53:08;;;;;;;13.45;9.98;;;;;;;9.64;98.47;96266.41;4890531;29;20079;-62
2021/05/17 03:55:34;;;;;;;11.82;9.27;;;;;;;9.95;99.55;96293.53;4890289;29;20052;-61
2021/05/17 03:58:00;;;;;;;9.23;8.18;;;;;;;10.28;97.99;96310.00;4890510;29;20028;-62
2021/05/17 04:00:30;;;;;;;9.15;7.47;;;;;;;10.26;96.76;96314.31;4888493;29;20051;-61
2021/05/17 04:02:58;;;;;;;12.32;8.63;;;;;;;10.03;96.69;96317.31;4891148;29;20024;-60
2021/05/17 04:05:56;;;;;;;11.95;8.45;;;;;;;10.10;98.31;96322.91;4890332;29;20409;-64
2021/05/17 04:13:50;;;;;;;10.02;7.35;;;;;;;10.88;93.24;96317.81;4890515;29;20052;-61
2021/05/17 04:16:15;;;;;;;7.35;6.50;;;;;;;10.99;93.35;96313.09;4888369;29;20041;-62
2021/05/17 04:18:41;;;;;;;8.10;7.25;;;;;;;10.20;94.62;96181.06;4890158;29;20063;-61
2021/05/17 04:21:07;;;;;;;11.57;7.65;;;;;;;8.81;94.87;95939.44;4890340;29;20047;-61
2021/05/17 04:23:33;;;;;;;9.20;6.97;;;;;;;10.94;93.15;96260.84;4890195;29;20056;-63
2021/05/17 04:25:58;;;;;;;10.43;6.68;;;;;;;11.43;93.86;96310.88;4888478;29;20063;-61
2021/05/17 04:28:24;;;;;;;9.02;6.13;;;;;;;11.60;92.93;96315.66;4888672;29;20039;-63
2021/05/17 04:30:49;;;;;;;6.93;6.22;;;;;;;11.36;91.57;96249.84;4889492;29;20081;-62
2021/05/17 04:33:15;;;;;;;13.20;7.18;;;;;;;11.77;92.34;96314.88;4889983;29;20477;-61
2021/05/17 04:35:40;;;;;;;7.43;6.32;;;;;;;12.08;90.97;96320.44;4889388;29;20481;-62
2021/05/17 04:38:06;;;;;;;9.38;6.57;;;;;;;11.91;89.55;96292.69;4890187;29;20033;-62
2021/05/17 04:40:31;;;;;;;6.35;5.65;;;;;;;12.46;88.72;96318.81;4888004;29;20082;-64
2021/05/17 04:42:57;;;;;;;6.68;6.05;;;;;;;12.56;87.35;96318.00;4890403;29;20036;-62
2021/05/17 04:45:24;;;;;;;7.75;5.90;;;;;;;11.18;86.02;96080.75;4889434;29;20440;-63
2021/05/17 04:47:51;;;;;;;7.13;6.43;;;;;;;12.88;85.92;96324.22;4889244;29;20489;-64
2021/05/17 04:50:16;;;;;;;8.75;6.65;;;;;;;13.04;85.80;96327.38;4887842;29;20119;-62
2021/05/17 04:52:42;;;;;;;9.95;6.70;;;;;;;13.20;85.86;96319.34;4889524;29;20572;-62
2021/05/17 04:55:08;;;;;;;9.20;7.13;;;;;;;13.14;85.52;96276.50;4889452;29;20096;-63
2021/05/17 04:57:33;;;;;;;7.28;6.38;;;;;;;13.60;84.95;96310.41;4888975;29;20042;-62
2021/05/17 04:59:59;;;;;;;7.32;6.63;;;;;;;13.73;83.88;96318.25;4887918;29;20044;-62
2021/05/17 05:02:24;;;;;;;7.40;6.75;;;;;;;13.75;83.07;96321.44;4889337;29;20120;-62
2021/05/17 05:04:50;;;;;;;6.78;6.10;;;;;;;13.60;83.36;96285.34;4889448;29;20044;-64
2021/05/17 05:07:15;;;;;;;10.32;6.43;;;;;;;14.03;82.86;96310.06;4887439;29;20519;-63
2021/05/17 05:09:41;;;;;;;7.07;6.07;;;;;;;14.24;82.63;96305.13;4889114;29;20060;-62
2021/05/17 05:12:07;;;;;;;6.97;6.13;;;;;;;14.33;82.05;96307.44;4888694;29;20029;-62
2021/05/17 05:14:32;;;;;;;9.73;7.40;;;;;;;14.47;80.68;96310.91;4889283;29;20524;-62
2021/05/17 05:16:58;;;;;;;6.22;5.65;;;;;;;14.30;79.44;96308.28;4888632;29;20040;-62
2021/05/17 05:19:24;;;;;;;6.57;6.07;;;;;;;14.52;79.09;96306.88;4888009;29;20559;-63
2021/05/17 05:21:50;;;;;;;5.65;4.95;;;;;;;14.70;77.27;96285.19;4887064;29;20052;-64
2021/05/17 05:24:16;;;;;;;6.30;4.88;;;;;;;14.96;75.30;96295.59;4889246;29;20061;-63
2021/05/17 05:29:36;;;;;;;8.45;6.20;;;;;;;15.21;74.71;96307.25;4897522;29;20658;-60
2021/05/17 05:34:31;;;;;;;6.38;5.70;;;;;;;14.97;74.52;96219.09;4893415;29;20069;-68
2021/05/17 05:37:01;;;;;;;5.93;5.13;;;;;;;15.02;74.12;96204.69;4892607;29;20472;-62
2021/05/17 05:39:27;;;;;;;6.70;6.10;;;;;;;15.38;75.06;96250.44;4868363;29;20040;-61
2021/05/17 05:41:53;;;;;;;6.43;5.88;;;;;;;15.87;73.16;96272.00;4880205;29;20041;-64
2021/05/17 05:44:19;;;;;;;7.45;5.50;;;;;;;15.81;72.66;96273.72;4888570;29;20029;-64
2021/05/17 05:46:45;;;;;;;6.25;5.75;;;;;;;15.92;74.92;96302.25;4904808;29;20051;-61
2021/05/17 05:49:11;;;;;;;7.63;6.15;;;;;;;15.52;75.36;96250.25;4898411;29;20052;-62
2021/05/17 05:51:37;;;;;;;9.40;5.90;;;;;;;13.80;75.75;95928.53;4905112;29;20535;-70
2021/05/17 05:54:03;;;;;;;8.52;7.22;;;;;;;16.16;76.65;96239.59;4901166;29;20165;-65
2021/05/17 05:56:29;;;;;;;13.10;6.90;;;;;;;16.10;75.33;96202.19;4888129;29;20036;-63
2021/05/17 05:58:55;;;;;;;6.95;5.50;;;;;;;16.05;71.50;96171.94;4888687;29;20127;-67
2021/05/17 06:01:20;;;;;;;9.13;5.50;;;;;;;16.88;67.93;96284.63;4892526;29;20077;-64
2021/05/17 06:03:46;;;;;;;6.75;5.68;;;;;;;17.18;67.20;96276.00;4869937;29;20116;-61
2021/05/17 06:06:12;;;;;;;6.38;5.88;;;;;;;16.85;71.68;96223.94;4878666;29;20459;-61
2021/05/17 06:08:40;;;;;;;6.63;5.97;;;;;;;15.79;71.35;96077.88;4909230;29;20047;-61
2021/05/17 06:11:07;;;;;;;7.00;4.43;;;;;;;17.09;64.52;96270.19;4909283;29;20048;-64
2021/05/17 06:13:33;;;;;;;6.38;5.78;;;;;;;16.98;59.74;96238.84;4909502;29;20828;-62
2021/05/17 06:15:59;;;;;;;4.43;4.13;;;;;;;17.38;60.70;96285.16;4896478;29;20423;-64
2021/05/17 06:18:25;;;;;;;4.93;4.50;;;;;;;17.60;60.94;96280.72;4891487;29;20036;-61
2021/05/17 06:20:51;;;;;;;5.20;4.78;;;;;;;17.46;62.44;96230.63;4893315;29;20100;-71
2021/05/17 06:23:17;;;;;;;5.70;4.38;;;;;;;17.96;59.60;96273.84;4906808;29;20488;-65
2021/05/17 06:25:43;;;;;;;4.63;4.18;;;;;;;18.16;59.00;96278.59;4899931;29;20051;-61
2021/05/17 06:28:10;;;;;;;4.30;4.00;;;;;;;17.46;55.58;96146.63;4900136;29;20032;-62
2021/05/17 06:30:44;;;;;;;3.95;3.53;;;;;;;17.93;54.32;96206.66;4893524;29;20092;-63
2021/05/17 06:33:10;;;;;;;4.68;4.15;;;;;;;17.82;54.73;96181.72;4896437;29;20036;-63
2021/05/17 06:35:43;;;;;;;4.68;4.20;;;;;;;18.18;54.99;96220.84;4913271;29;20044;-72
2021/05/17 06:38:08;;;;;;;5.45;4.13;;;;;;;18.61;54.87;96271.00;4905823;29;20081;-70
2021/05/17 06:40:34;;;;;;;4.85;4.45;;;;;;;17.82;54.81;96130.50;4909773;29;20075;-74
2021/05/17 06:43:00;;;;;;;3.95;3.60;;;;;;;18.19;52.55;96155.16;4904857;29;20399;-71
2021/05/17 06:45:25;;;;;;;4.07;3.78;;;;;;;19.14;51.75;96254.25;4911443;29;20036;-77
2021/05/17 06:47:51;;;;;;;4.43;4.13;;;;;;;18.90;51.51;96202.47;4908947;29;20526;-77
2021/05/17 06:50:17;;;;;;;4.57;4.28;;;;;;;19.17;53.01;96196.44;4890726;29;20039;-77
2021/05/17 06:52:43;;;;;;;4.40;4.00;;;;;;;18.66;53.78;96116.97;4894766;29;20064;-69
2021/05/17 06:55:18;;;;;;;4.28;3.88;;;;;;;18.76;53.43;96126.31;4899362;29;20108;-76
2021/05/17 07:00:31;;;;;;;5.60;4.72;;;;;;;19.52;54.42;96207.41;4888805;29;20072;-68
2021/05/17 07:02:59;;;;;;;5.07;4.60;;;;;;;19.83;53.65;96271.47;4901479;29;20033;-74
2021/05/17 07:05:25;;;;;;;5.20;4.75;;;;;;;19.77;55.12;96228.31;4891271;29;20033;-74
2021/05/17 07:13:04;;;;;;;4.75;4.35;;;;;;;19.89;52.81;96168.47;4891439;29;20047;-77
2021/05/17 07:15:30;;;;;;;4.78;4.32;;;;;;;20.16;51.62;96196.91;4889083;29;20036;-77
2021/05/17 07:17:55;;;;;;;4.25;3.85;;;;;;;20.10;52.61;96207.13;4890931;29;20039;-72
2021/05/17 07:20:31;;;;;;;4.93;4.53;;;;;;;20.78;53.19;96230.50;4885534;29;20045;-67
2021/05/17 07:25:41;;;;;;;4.85;4.55;;;;;;;20.79;52.82;96180.59;4897091;29;20532;-74
2021/05/17 07:28:06;;;;;;;5.05;4.38;;;;;;;20.32;52.25;96078.63;4900866;29;20044;-72
2021/05/17 07:30:33;;;;;;;7.53;3.88;;;;;;;21.50;48.80;96202.03;4901827;29;20048;-67
2021/05/17 07:32:59;;;;;;;4.70;4.40;;;;;;;21.38;49.25;96135.28;4896163;29;20028;-69
2021/05/17 07:35:25;;;;;;;5.15;4.75;;;;;;;21.86;48.81;96174.00;4894467;29;20032;-69
2021/05/17 07:37:50;;;;;;;4.97;4.40;;;;;;;21.26;47.64;96043.19;4906558;29;20040;-69
2021/05/17 07:40:16;;;;;;;4.10;3.90;;;;;;;22.09;47.41;96119.88;4893187;29;20040;-69
2021/05/17 07:42:41;;;;;;;4.35;3.90;;;;;;;22.98;45.64;96195.81;4889906;29;20068;-75
2021/05/17 07:45:07;;;;;;;4.38;4.03;;;;;;;22.70;45.77;96129.34;4892203;29;20526;-65
2021/05/17 07:47:33;;;;;;;5.07;4.30;;;;;;;23.32;44.73;96187.78;4891306;29;20045;-73
2021/05/17 07:49:58;;;;;;;4.60;4.30;;;;;;;22.89;45.34;96080.81;4900873;29;20503;-73
2021/05/17 07:52:24;;;;;;;5.55;5.07;;;;;;;23.81;43.99;96195.94;4906367;29;20043;-68
2021/05/17 07:54:50;;;;;;;5.60;5.15;;;;;;;23.82;44.29;96198.31;4876450;29;20043;-70
2021/05/17 07:57:15;;;;;;;4.72;4.43;;;;;;;23.26;45.06;96171.94;4904451;29;20116;-70
2021/05/17 07:59:41;;;;;;;4.80;4.55;;;;;;;23.79;41.87;96198.47;4908651;29;20143;-70
2021/05/17 08:02:07;;;;;;;4.93;4.63;;;;;;;23.42;42.21;96135.63;4908330;29;20286;-70
2021/05/17 08:04:33;;;;;;;4.68;4.38;;;;;;;23.84;41.97;96138.41;4905595;29;20500;-67
2021/05/17 08:06:59;;;;;;;4.35;4.05;;;;;;;24.10;40.75;96138.78;4906978;29;20423;-68
2021/05/17 08:09:24;;;;;;;5.00;4.63;;;;;;;24.52;39.85;96182.69;4907055;29;20040;-73
2021/05/17 08:11:51;;;;;;;4.70;4.40;;;;;;;24.02;40.37;96132.69;4901681;29;20043;-66
2021/05/17 08:14:18;;;;;;;4.32;4.13;;;;;;;24.28;41.09;96173.41;4898900;29;20116;-65
2021/05/17 08:16:44;;;;;;;4.97;4.50;;;;;;;24.37;41.02;96187.53;4888923;29;20514;-62
2021/05/17 08:19:10;;;;;;;4.05;3.85;;;;;;;23.71;40.01;96095.44;4888149;29;20429;-70
2021/05/17 08:21:35;;;;;;;4.68;4.38;;;;;;;24.27;40.17;96163.34;4887521;29;20118;-71
2021/05/17 08:24:02;;;;;;;4.75;4.45;;;;;;;24.53;39.52;96161.56;4883949;29;20064;-68
2021/05/17 08:26:27;;;;;;;4.40;4.03;;;;;;;24.70;39.40;96120.28;4886713;29;20401;-73
2021/05/17 08:28:53;;;;;;;4.82;4.53;;;;;;;25.28;39.11;96154.34;4889536;29;20400;-67
2021/05/17 08:31:22;;;;;;;6.95;6.13;;;;;;;24.73;38.04;96003.16;4889863;29;20032;-70
2021/05/17 08:33:48;;;;;;;5.18;4.88;;;;;;;26.12;37.70;96156.50;4888941;29;20063;-67
2021/05/17 08:36:14;;;;;;;5.00;4.80;;;;;;;25.98;38.25;96143.91;4891617;29;20039;-69
2021/05/17 08:38:41;;;;;;;5.25;4.95;;;;;;;25.39;38.25;96090.63;4896724;29;20044;-71
2021/05/17 08:41:08;;;;;;;4.80;4.50;;;;;;;25.43;38.58;96125.22;4888818;29;20055;-72
2021/05/17 08:43:38;;;;;;;4.75;4.47;;;;;;;25.45;37.62;96145.38;4888748;29;20045;-68
2021/05/17 08:46:04;;;;;;;4.43;4.13;;;;;;;23.91;39.03;96050.38;4888505;29;20158;-76
2021/05/17 08:48:29;;;;;;;4.80;4.50;;;;;;;24.36;40.02;96134.97;4889275;29;20045;-73
2021/05/17 08:50:55;;;;;;;4.68;4.32;;;;;;;22.93;39.80;95928.91;4888693;29;20511;-66
2021/05/17 08:53:20;;;;;;;4.65;4.35;;;;;;;24.40;41.10;96124.25;4890482;29;20051;-70
2021/05/17 08:55:46;;;;;;;4.43;4.13;;;;;;;24.52;40.33;96126.03;4888762;29;20306;-66
2021/05/17 08:58:12;;;;;;;6.45;4.57;;;;;;;24.34;41.28;96120.53;4888870;29;20489;-70
2021/05/17 09:00:37;;;;;;;4.97;4.43;;;;;;;24.27;40.76;96081.25;4891852;29;20488;-74
2021/05/17 09:03:03;;;;;;;5.10;4.70;;;;;;;24.56;39.64;96115.31;4897268;29;20041;-59
2021/05/17 09:05:32;;;;;;;4.68;4.28;;;;;;;24.64;40.40;96113.69;4886079;29;20037;-61
2021/05/17 09:08:02;;;;;;;4.70;4.47;;;;;;;24.20;39.84;95991.03;4887044;29;20044;-60
2021/05/17 09:10:35;;;;;;;4.88;4.57;;;;;;;25.13;38.79;96119.50;4887004;29;20605;-61
2021/05/17 09:13:14;;;;;;;4.57;4.22;;;;;;;25.30;39.40;96114.16;4887064;29;20044;-61
2021/05/17 09:15:45;;;;;;;5.32;4.90;;;;;;;25.62;37.89;96126.56;4887867;29;20037;-62
2021/05/17 09:18:15;;;;;;;4.85;4.65;;;;;;;25.00;36.94;95985.84;4888235;29;20572;-62
2021/05/17 09:20:46;;;;;;;5.25;4.82;;;;;;;25.94;38.02;96120.59;4887346;29;20032;-65
2021/05/17 09:23:15;;;;;;;5.72;4.95;;;;;;;25.28;38.83;96023.91;4887542;29;20056;-61
2021/05/17 09:25:59;;;;;;;5.13;4.80;;;;;;;26.19;38.92;96119.19;4887326;29;20036;-63
2021/05/17 09:28:46;;;;;;;7.05;4.82;;;;;;;26.13;36.47;96121.19;4886946;29;20037;-62
2021/05/17 09:31:15;;;;;;;4.43;4.05;;;;;;;25.88;35.30;96138.81;4887413;29;20111;-60
2021/05/17 09:33:49;;;;;;;4.03;3.72;;;;;;;25.91;35.66;96110.25;4887603;29;20041;-61
2021/05/17 09:36:39;;;;;;;6.05;4.15;;;;;;;25.91;37.11;96115.16;4894810;29;20499;-62
2021/05/17 09:39:11;;;;;;;4.78;4.50;;;;;;;25.04;36.93;95969.41;4896615;29;20055;-61
2021/05/17 09:41:57;;;;;;;3.60;3.40;;;;;;;25.63;36.19;96099.75;4887793;29;20040;-62
2021/05/17 09:44:28;;;;;;;4.47;4.28;;;;;;;24.63;37.06;95939.34;4883334;29;20437;-64
2021/05/17 09:47:13;;;;;;;4.38;4.15;;;;;;;25.91;35.72;96103.81;4887365;29;20036;-61
2021/05/17 09:49:51;;;;;;;4.80;4.53;;;;;;;25.35;36.33;96002.13;4886532;29;20052;-59
2021/05/17 09:52:22;;;;;;;7.93;5.35;;;;;;;26.03;37.71;96106.34;4886448;29;20036;-60
2021/05/17 09:54:58;;;;;;;4.97;4.40;;;;;;;25.85;38.55;96066.03;4887045;29;20591;-60
2021/05/17 09:57:38;;;;;;;4.55;4.35;;;;;;;25.96;37.72;96125.78;4887023;29;20037;-58
2021/05/17 10:00:25;;;;;;;5.80;5.25;;;;;;;25.49;37.77;96077.88;4887573;29;20040;-67
2021/05/17 10:02:58;;;;;;;4.97;4.55;;;;;;;25.76;37.14;96117.25;4885538;29;20056;-66
2021/05/17 10:05:34;;;;;;;4.35;4.05;;;;;;;25.51;37.31;96127.19;4887065;29;20346;-62
2021/05/17 10:08:04;;;;;;;6.55;4.95;;;;;;;25.78;37.21;96111.84;4887588;29;20044;-65
2021/05/17 10:10:31;;;;;;;5.13;4.63;;;;;;;25.70;37.00;96042.59;4886458;29;20048;-65
2021/05/17 10:12:59;;;;;;;5.55;4.10;;;;;;;26.03;36.99;96116.91;4886998;29;20040;-62
2021/05/17 10:15:27;;;;;;;4.90;4.60;;;;;;;26.32;36.69;96113.94;4886179;29;20029;-61
2021/05/17 10:17:53;;;;;;;5.22;4.82;;;;;;;25.69;37.01;96018.38;4886855;29;20035;-63
2021/05/17 10:20:22;;;;;;;5.60;5.20;;;;;;;26.11;37.66;96118.84;4886264;29;20522;-65
2021/05/17 10:22:49;;;;;;;4.78;4.57;;;;;;;25.85;37.74;96038.44;4894981;29;20056;-61
2021/05/17 10:25:22;;;;;;;5.32;5.03;;;;;;;26.21;36.84;96111.72;4885573;29;20047;-58
2021/05/17 10:27:51;;;;;;;5.00;4.70;;;;;;;26.01;37.15;96054.16;4891220;29;20040;-63
2021/05/17 10:30:28;;;;;;;6.40;4.82;;;;;;;25.49;37.21;96010.59;4881284;29;20123;-63
2021/05/17 10:32:56;;;;;;;5.40;5.00;;;;;;;26.09;37.60;96109.25;4876961;29;20040;-60
2021/05/17 10:35:27;;;;;;;4.80;4.40;;;;;;;25.11;37.23;96041.91;4905876;29;20092;-60
2021/05/17 10:38:15;;;;;;;4.60;4.30;;;;;;;25.39;37.58;96113.31;4906131;29;20213;-61
2021/05/17 10:40:43;;;;;;;5.18;4.72;;;;;;;25.07;37.89;96076.13;4893324;29;20151;-61
2021/05/17 10:48:25;;;;;;;5.03;4.57;;;;;;;25.54;38.28;96108.38;4896554;29;20040;-61
2021/05/17 10:51:08;;;;;;;4.53;4.15;;;;;;;25.39;38.39;96119.72;4887912;29;20123;-61
2021/05/17 10:53:54;;;;;;;5.75;5.32;;;;;;;25.29;39.31;96115.44;4888332;29;20447;-61
2021/05/17 10:56:39;;;;;;;4.47;4.22;;;;;;;25.44;39.70;96104.06;4871373;29;20440;-63
2021/05/17 11:01:59;;;;;;;5.55;5.07;;;;;;;25.70;38.56;96105.03;4908301;29;20047;-60
2021/05/17 11:04:33;;;;;;;4.95;4.65;;;;;;;25.79;38.74;96102.06;4900017;29;20076;-58
2021/05/17 11:07:14;;;;;;;4.80;4.53;;;;;;;25.43;38.42;96006.09;4908543;29;20040;-57
2021/05/17 11:09:52;;;;;;;4.80;4.60;;;;;;;26.13;39.02;96087.13;4889606;29;20071;-61
2021/05/17 11:12:24;;;;;;;5.10;4.65;;;;;;;26.33;39.36;96085.06;4903473;29;20044;-60
2021/05/17 11:15:10;;;;;;;4.80;4.47;;;;;;;26.78;39.47;96092.03;4902315;29;21322;-62
2021/05/17 11:17:57;;;;;;;5.47;5.05;;;;;;;26.68;39.18;96088.59;4915987;29;20535;-60
2021/05/17 11:23:14;;;;;;;4.75;4.55;;;;;;;25.85;41.30;96066.03;4890289;29;20048;-68
2021/05/17 11:25:49;;;;;;;5.25;4.85;;;;;;;25.81;41.83;96093.84;4891405;29;20120;-66
2021/05/17 11:28:16;;;;;;;5.43;5.10;;;;;;;25.39;42.53;96067.94;4902826;29;20107;-65
2021/05/17 11:30:44;;;;;;;5.18;4.80;;;;;;;25.20;43.39;96076.59;4897635;29;20492;-64
2021/05/17 11:33:17;;;;;;;6.00;4.60;;;;;;;25.16;44.29;96095.88;4879908;29;20150;-64
2021/05/17 11:36:09;;;;;;;5.15;4.75;;;;;;;25.13;44.35;96102.50;4889057;29;20092;-63
2021/05/17 11:38:34;;;;;;;5.35;4.95;;;;;;;25.09;44.32;96113.28;4878160;29;20065;-59
2021/05/17 11:41:00;;;;;;;6.32;4.93;;;;;;;24.99;45.81;96120.28;4886312;29;20047;-60
2021/05/17 11:43:26;;;;;;;5.43;4.93;;;;;;;24.24;48.47;96099.22;4878923;29;20040;-65
2021/05/17 11:45:52;;;;;;;5.20;4.80;;;;;;;23.67;47.26;96140.06;4888586;29;20072;-62
2021/05/17 11:48:17;;;;;;;4.13;3.92;;;;;;;22.70;45.77;96129.34;4889783;29;20420;-62
2021/05/17 11:50:44;;;;;;;4.47;4.18;;;;;;;21.85;50.20;96092.72;4903518;29;20571;-63
2021/05/17 11:53:16;;;;;;;4.50;4.20;;;;;;;21.91;53.63;96131.09;4890347;29;20075;-61
2021/05/17 11:55:46;;;;;;;4.55;4.25;;;;;;;21.48;56.39;96153.78;4898275;29;20044;-64
2021/05/17 11:58:12;;;;;;;4.57;4.18;;;;;;;21.39;58.49;96142.50;4893118;29;20028;-62
2021/05/17 12:00:37;;;;;;;4.47;4.18;;;;;;;21.17;61.01;96133.31;4888961;29;20405;-61
2021/05/17 12:03:10;;;;;;;4.57;4.28;;;;;;;21.06;63.71;96127.31;4888073;29;20029;-61
2021/05/17 12:05:35;;;;;;;5.28;4.78;;;;;;;20.91;64.08;96086.84;4902291;29;20524;-63
2021/05/17 12:08:01;;;;;;;4.53;4.07;;;;;;;20.86;59.96;96079.78;4903688;29;20032;-65
2021/05/17 12:10:35;;;;;;;5.32;3.88;;;;;;;21.23;59.51;96130.69;4890138;29;20080;-67
2021/05/17 12:13:13;;;;;;;4.47;4.07;;;;;;;21.49;59.79;96124.38;4895146;29;20524;-62